sensor_id;sensor_type;location;lat;lon;timestamp;P1;durP1;ratioP1;P2;durP2;ratioP2
62863;SDS011;48954;59.950;11.014;2023-08-20T00:02:22;7.60;;;5.10;;
62863;SDS011;48954;59.950;11.014;2023-08-20T00:05:30;7.20;;;4.80;;
62863;SDS011;48954;59.950;11.014;2023-08-20T00:08:18;6.40;;;4.60;;
62863;SDS011;48954;59.950;11.014;2023-08-20T00:11:17;6.00;;;4.70;;
62863;SDS011;48954;59.950;11.014;2023-08-20T00:13:58;7.30;;;4.80;;
62863;SDS011;48954;59.950;11.014;2023-08-20T00:16:47;6.50;;;4.70;;
62863;SDS011;48954;59.950;11.014;2023-08-20T00:19:57;7.40;;;4.40;;
62863;SDS011;48954;59.950;11.014;2023-08-20T00:22:38;6.30;;;4.60;;
62863;SDS011;48954;59.950;11.014;2023-08-20T00:42:07;9.50;;;5.30;;
62863;SDS011;48954;59.950;11.014;2023-08-20T00:44:47;6.80;;;5.10;;
62863;SDS011;48954;59.950;11.014;2023-08-20T00:48:05;8.90;;;4.90;;
62863;SDS011;48954;59.950;11.014;2023-08-20T00:50:52;10.60;;;4.70;;
62863;SDS011;48954;59.950;11.014;2023-08-20T00:53:44;8.10;;;4.50;;
62863;SDS011;48954;59.950;11.014;2023-08-20T00:56:19;8.20;;;5.10;;
62863;SDS011;48954;59.950;11.014;2023-08-20T00:59:04;7.40;;;4.80;;
62863;SDS011;48954;59.950;11.014;2023-08-20T01:01:45;9.80;;;5.40;;
62863;SDS011;48954;59.950;11.014;2023-08-20T01:04:21;11.70;;;5.80;;
62863;SDS011;48954;59.950;11.014;2023-08-20T01:07:04;10.70;;;5.70;;
62863;SDS011;48954;59.950;11.014;2023-08-20T01:10:13;8.70;;;6.00;;
62863;SDS011;48954;59.950;11.014;2023-08-20T01:12:56;7.90;;;5.40;;
62863;SDS011;48954;59.950;11.014;2023-08-20T01:15:40;11.30;;;6.00;;
62863;SDS011;48954;59.950;11.014;2023-08-20T01:18:07;8.40;;;6.20;;
62863;SDS011;48954;59.950;11.014;2023-08-20T01:20:39;14.30;;;7.10;;
62863;SDS011;48954;59.950;11.014;2023-08-20T01:23:33;10.70;;;6.80;;
62863;SDS011;48954;59.950;11.014;2023-08-20T01:28:55;10.30;;;6.30;;
62863;SDS011;48954;59.950;11.014;2023-08-20T01:31:23;11.60;;;7.10;;
62863;SDS011;48954;59.950;11.014;2023-08-20T01:33:58;11.00;;;6.70;;
62863;SDS011;48954;59.950;11.014;2023-08-20T01:36:34;10.60;;;6.10;;
62863;SDS011;48954;59.950;11.014;2023-08-20T01:39:01;11.50;;;7.30;;
62863;SDS011;48954;59.950;11.014;2023-08-20T01:41:39;14.10;;;6.80;;
62863;SDS011;48954;59.950;11.014;2023-08-20T01:44:10;12.90;;;8.20;;
62863;SDS011;48954;59.950;11.014;2023-08-20T01:46:37;10.70;;;7.00;;
62863;SDS011;48954;59.950;11.014;2023-08-20T01:49:05;14.10;;;7.30;;
62863;SDS011;48954;59.950;11.014;2023-08-20T01:51:47;11.80;;;7.10;;
62863;SDS011;48954;59.950;11.014;2023-08-20T01:54:45;11.40;;;7.90;;
62863;SDS011;48954;59.950;11.014;2023-08-20T01:57:21;10.90;;;6.70;;
62863;SDS011;48954;59.950;11.014;2023-08-20T01:59:54;11.00;;;6.40;;
62863;SDS011;48954;59.950;11.014;2023-08-20T02:02:24;12.20;;;6.40;;
62863;SDS011;48954;59.950;11.014;2023-08-20T02:04:51;10.40;;;6.90;;
62863;SDS011;48954;59.950;11.014;2023-08-20T02:07:29;12.60;;;6.70;;
62863;SDS011;48954;59.950;11.014;2023-08-20T02:09:57;10.00;;;6.90;;
62863;SDS011;48954;59.950;11.014;2023-08-20T02:12:39;12.70;;;6.80;;
62863;SDS011;48954;59.950;11.014;2023-08-20T02:15:09;11.70;;;7.10;;
62863;SDS011;48954;59.950;11.014;2023-08-20T02:17:37;13.00;;;7.50;;
62863;SDS011;48954;59.950;11.014;2023-08-20T02:20:04;10.00;;;7.10;;
62863;SDS011;48954;59.950;11.014;2023-08-20T02:22:34;12.80;;;7.60;;
62863;SDS011;48954;59.950;11.014;2023-08-20T02:25:01;11.90;;;7.60;;
62863;SDS011;48954;59.950;11.014;2023-08-20T02:27:49;13.50;;;7.60;;
62863;SDS011;48954;59.950;11.014;2023-08-20T02:30:23;11.90;;;7.50;;
62863;SDS011;48954;59.950;11.014;2023-08-20T02:32:53;12.30;;;7.60;;
62863;SDS011;48954;59.950;11.014;2023-08-20T02:35:30;11.50;;;7.80;;
62863;SDS011;48954;59.950;11.014;2023-08-20T02:37:58;13.00;;;7.80;;
62863;SDS011;48954;59.950;11.014;2023-08-20T02:40:27;13.20;;;7.90;;
62863;SDS011;48954;59.950;11.014;2023-08-20T02:42:54;15.00;;;8.50;;
62863;SDS011;48954;59.950;11.014;2023-08-20T02:45:22;13.00;;;8.50;;
62863;SDS011;48954;59.950;11.014;2023-08-20T02:48:03;13.70;;;7.80;;
62863;SDS011;48954;59.950;11.014;2023-08-20T02:50:37;16.50;;;8.90;;
62863;SDS011;48954;59.950;11.014;2023-08-20T02:53:06;14.60;;;9.00;;
62863;SDS011;48954;59.950;11.014;2023-08-20T02:55:42;12.20;;;7.40;;
62863;SDS011;48954;59.950;11.014;2023-08-20T02:58:23;13.10;;;7.90;;
62863;SDS011;48954;59.950;11.014;2023-08-20T03:00:54;10.50;;;6.80;;
62863;SDS011;48954;59.950;11.014;2023-08-20T03:03:25;15.30;;;8.40;;
62863;SDS011;48954;59.950;11.014;2023-08-20T03:06:05;13.60;;;8.00;;
62863;SDS011;48954;59.950;11.014;2023-08-20T03:08:38;13.40;;;8.60;;
62863;SDS011;48954;59.950;11.014;2023-08-20T03:11:08;17.40;;;8.60;;
62863;SDS011;48954;59.950;11.014;2023-08-20T03:13:37;14.60;;;9.00;;
62863;SDS011;48954;59.950;11.014;2023-08-20T03:16:07;14.80;;;8.00;;
62863;SDS011;48954;59.950;11.014;2023-08-20T03:18:35;12.40;;;7.60;;
62863;SDS011;48954;59.950;11.014;2023-08-20T03:21:15;16.50;;;9.10;;
62863;SDS011;48954;59.950;11.014;2023-08-20T03:23:56;14.30;;;8.70;;
62863;SDS011;48954;59.950;11.014;2023-08-20T03:26:26;14.40;;;8.50;;
62863;SDS011;48954;59.950;11.014;2023-08-20T03:28:54;15.60;;;8.10;;
62863;SDS011;48954;59.950;11.014;2023-08-20T03:31:22;18.50;;;8.80;;
62863;SDS011;48954;59.950;11.014;2023-08-20T03:33:53;14.60;;;8.60;;
62863;SDS011;48954;59.950;11.014;2023-08-20T03:36:24;13.60;;;7.80;;
62863;SDS011;48954;59.950;11.014;2023-08-20T03:38:53;11.50;;;7.40;;
62863;SDS011;48954;59.950;11.014;2023-08-20T03:41:20;15.00;;;7.70;;
62863;SDS011;48954;59.950;11.014;2023-08-20T03:43:49;14.90;;;8.30;;
62863;SDS011;48954;59.950;11.014;2023-08-20T03:46:17;13.60;;;7.40;;
62863;SDS011;48954;59.950;11.014;2023-08-20T03:48:45;15.00;;;8.30;;
62863;SDS011;48954;59.950;11.014;2023-08-20T03:51:25;13.40;;;7.90;;
62863;SDS011;48954;59.950;11.014;2023-08-20T03:53:55;12.90;;;7.10;;
62863;SDS011;48954;59.950;11.014;2023-08-20T03:56:24;10.90;;;6.40;;
62863;SDS011;48954;59.950;11.014;2023-08-20T03:58:52;9.50;;;4.40;;
62863;SDS011;48954;59.950;11.014;2023-08-20T04:01:21;6.20;;;3.30;;
62863;SDS011;48954;59.950;11.014;2023-08-20T04:03:48;6.20;;;3.20;;
62863;SDS011;48954;59.950;11.014;2023-08-20T04:06:16;5.60;;;3.30;;
62863;SDS011;48954;59.950;11.014;2023-08-20T04:08:47;5.00;;;2.70;;
62863;SDS011;48954;59.950;11.014;2023-08-20T04:11:15;6.80;;;3.40;;
62863;SDS011;48954;59.950;11.014;2023-08-20T04:13:41;5.30;;;3.00;;
62863;SDS011;48954;59.950;11.014;2023-08-20T04:16:10;5.60;;;3.00;;
62863;SDS011;48954;59.950;11.014;2023-08-20T04:18:37;6.20;;;3.20;;
62863;SDS011;48954;59.950;11.014;2023-08-20T04:21:11;6.00;;;3.70;;
62863;SDS011;48954;59.950;11.014;2023-08-20T04:23:50;6.50;;;3.80;;
62863;SDS011;48954;59.950;11.014;2023-08-20T04:26:18;5.00;;;3.10;;
62863;SDS011;48954;59.950;11.014;2023-08-20T04:28:58;6.80;;;3.00;;
62863;SDS011;48954;59.950;11.014;2023-08-20T04:31:27;5.70;;;3.50;;
62863;SDS011;48954;59.950;11.014;2023-08-20T04:34:13;7.10;;;3.80;;
62863;SDS011;48954;59.950;11.014;2023-08-20T04:36:57;7.80;;;4.20;;
62863;SDS011;48954;59.950;11.014;2023-08-20T04:39:25;6.20;;;3.30;;
62863;SDS011;48954;59.950;11.014;2023-08-20T04:41:54;7.10;;;3.70;;
62863;SDS011;48954;59.950;11.014;2023-08-20T04:44:21;10.70;;;4.10;;
62863;SDS011;48954;59.950;11.014;2023-08-20T04:47:02;6.80;;;3.40;;
62863;SDS011;48954;59.950;11.014;2023-08-20T04:49:30;7.20;;;3.20;;
62863;SDS011;48954;59.950;11.014;2023-08-20T04:52:01;6.00;;;3.30;;
62863;SDS011;48954;59.950;11.014;2023-08-20T04:54:36;5.80;;;2.80;;
62863;SDS011;48954;59.950;11.014;2023-08-20T04:57:06;5.60;;;3.00;;
62863;SDS011;48954;59.950;11.014;2023-08-20T04:59:46;4.50;;;2.80;;
62863;SDS011;48954;59.950;11.014;2023-08-20T05:02:28;4.40;;;2.20;;
62863;SDS011;48954;59.950;11.014;2023-08-20T05:05:05;6.80;;;2.60;;
62863;SDS011;48954;59.950;11.014;2023-08-20T05:07:48;5.00;;;2.40;;
62863;SDS011;48954;59.950;11.014;2023-08-20T05:10:28;5.20;;;2.50;;
62863;SDS011;48954;59.950;11.014;2023-08-20T05:12:57;4.00;;;1.90;;
62863;SDS011;48954;59.950;11.014;2023-08-20T05:15:40;3.30;;;1.80;;
62863;SDS011;48954;59.950;11.014;2023-08-20T05:18:20;5.00;;;1.90;;
62863;SDS011;48954;59.950;11.014;2023-08-20T05:20:51;3.20;;;1.80;;
62863;SDS011;48954;59.950;11.014;2023-08-20T05:27:06;2.30;;;1.20;;
62863;SDS011;48954;59.950;11.014;2023-08-20T05:29:43;2.90;;;1.40;;
62863;SDS011;48954;59.950;11.014;2023-08-20T05:32:11;2.70;;;1.20;;
62863;SDS011;48954;59.950;11.014;2023-08-20T05:34:40;2.00;;;1.00;;
62863;SDS011;48954;59.950;11.014;2023-08-20T05:37:20;1.90;;;0.80;;
62863;SDS011;48954;59.950;11.014;2023-08-20T05:40:01;2.00;;;0.80;;
62863;SDS011;48954;59.950;11.014;2023-08-20T05:42:36;2.50;;;0.90;;
62863;SDS011;48954;59.950;11.014;2023-08-20T05:45:04;2.40;;;0.80;;
62863;SDS011;48954;59.950;11.014;2023-08-20T05:47:48;1.80;;;0.70;;
62863;SDS011;48954;59.950;11.014;2023-08-20T05:50:34;1.70;;;0.90;;
62863;SDS011;48954;59.950;11.014;2023-08-20T05:53:21;2.30;;;0.70;;
62863;SDS011;48954;59.950;11.014;2023-08-20T05:56:05;1.50;;;0.80;;
62863;SDS011;48954;59.950;11.014;2023-08-20T05:58:46;1.30;;;0.60;;
62863;SDS011;48954;59.950;11.014;2023-08-20T06:03:51;0.90;;;0.50;;
62863;SDS011;48954;59.950;11.014;2023-08-20T06:06:18;2.80;;;0.90;;
62863;SDS011;48954;59.950;11.014;2023-08-20T06:08:59;1.70;;;0.70;;
62863;SDS011;48954;59.950;11.014;2023-08-20T06:11:26;1.80;;;0.80;;
62863;SDS011;48954;59.950;11.014;2023-08-20T06:14:02;2.90;;;1.20;;
62863;SDS011;48954;59.950;11.014;2023-08-20T06:16:45;3.40;;;1.30;;
62863;SDS011;48954;59.950;11.014;2023-08-20T06:19:28;2.00;;;0.90;;
62863;SDS011;48954;59.950;11.014;2023-08-20T06:22:29;2.30;;;1.20;;
62863;SDS011;48954;59.950;11.014;2023-08-20T06:24:58;3.50;;;1.30;;
62863;SDS011;48954;59.950;11.014;2023-08-20T06:27:54;3.30;;;1.60;;
62863;SDS011;48954;59.950;11.014;2023-08-20T06:31:00;2.90;;;1.50;;
62863;SDS011;48954;59.950;11.014;2023-08-20T06:33:41;3.60;;;1.20;;
62863;SDS011;48954;59.950;11.014;2023-08-20T06:36:22;2.30;;;0.90;;
62863;SDS011;48954;59.950;11.014;2023-08-20T06:38:51;2.50;;;1.20;;
62863;SDS011;48954;59.950;11.014;2023-08-20T06:41:31;3.00;;;1.20;;
62863;SDS011;48954;59.950;11.014;2023-08-20T06:44:13;3.30;;;1.30;;
62863;SDS011;48954;59.950;11.014;2023-08-20T06:47:14;2.50;;;1.40;;
62863;SDS011;48954;59.950;11.014;2023-08-20T06:49:54;2.80;;;0.80;;
62863;SDS011;48954;59.950;11.014;2023-08-20T06:52:35;2.70;;;0.70;;
62863;SDS011;48954;59.950;11.014;2023-08-20T06:55:19;1.10;;;0.60;;
62863;SDS011;48954;59.950;11.014;2023-08-20T06:58:00;2.30;;;1.00;;
62863;SDS011;48954;59.950;11.014;2023-08-20T07:00:41;2.30;;;0.90;;
62863;SDS011;48954;59.950;11.014;2023-08-20T07:03:22;2.40;;;1.10;;
62863;SDS011;48954;59.950;11.014;2023-08-20T07:05:52;3.20;;;0.90;;
62863;SDS011;48954;59.950;11.014;2023-08-20T07:08:35;1.40;;;0.80;;
62863;SDS011;48954;59.950;11.014;2023-08-20T07:11:17;1.90;;;0.80;;
62863;SDS011;48954;59.950;11.014;2023-08-20T07:13:52;4.30;;;0.90;;
62863;SDS011;48954;59.950;11.014;2023-08-20T07:16:42;2.80;;;1.00;;
62863;SDS011;48954;59.950;11.014;2023-08-20T07:19:24;1.90;;;0.90;;
62863;SDS011;48954;59.950;11.014;2023-08-20T07:21:51;1.80;;;0.80;;
62863;SDS011;48954;59.950;11.014;2023-08-20T07:24:32;2.70;;;0.90;;
62863;SDS011;48954;59.950;11.014;2023-08-20T07:27:12;2.00;;;1.00;;
62863;SDS011;48954;59.950;11.014;2023-08-20T07:29:58;2.20;;;1.00;;
62863;SDS011;48954;59.950;11.014;2023-08-20T07:32:39;1.50;;;0.80;;
62863;SDS011;48954;59.950;11.014;2023-08-20T07:35:40;1.70;;;1.00;;
62863;SDS011;48954;59.950;11.014;2023-08-20T07:41:01;4.00;;;1.10;;
62863;SDS011;48954;59.950;11.014;2023-08-20T07:43:41;2.90;;;0.70;;
62863;SDS011;48954;59.950;11.014;2023-08-20T07:46:22;2.00;;;0.90;;
62863;SDS011;48954;59.950;11.014;2023-08-20T07:49:04;1.50;;;0.70;;
62863;SDS011;48954;59.950;11.014;2023-08-20T07:54:35;2.70;;;0.90;;
62863;SDS011;48954;59.950;11.014;2023-08-20T07:57:17;1.30;;;0.70;;
62863;SDS011;48954;59.950;11.014;2023-08-20T07:59:57;2.90;;;0.90;;
62863;SDS011;48954;59.950;11.014;2023-08-20T08:02:37;3.00;;;1.10;;
62863;SDS011;48954;59.950;11.014;2023-08-20T08:05:19;3.20;;;1.20;;
62863;SDS011;48954;59.950;11.014;2023-08-20T08:07:49;2.40;;;1.10;;
62863;SDS011;48954;59.950;11.014;2023-08-20T08:10:18;2.50;;;0.90;;
62863;SDS011;48954;59.950;11.014;2023-08-20T08:12:59;2.80;;;1.10;;
62863;SDS011;48954;59.950;11.014;2023-08-20T08:15:39;2.20;;;1.10;;
62863;SDS011;48954;59.950;11.014;2023-08-20T08:18:49;2.10;;;1.00;;
62863;SDS011;48954;59.950;11.014;2023-08-20T08:24:02;3.40;;;1.30;;
62863;SDS011;48954;59.950;11.014;2023-08-20T08:26:34;2.60;;;1.20;;
62863;SDS011;48954;59.950;11.014;2023-08-20T08:29:10;2.60;;;1.10;;
62863;SDS011;48954;59.950;11.014;2023-08-20T08:31:50;2.60;;;1.50;;
62863;SDS011;48954;59.950;11.014;2023-08-20T08:34:32;2.70;;;1.50;;
62863;SDS011;48954;59.950;11.014;2023-08-20T08:37:13;2.70;;;1.70;;
62863;SDS011;48954;59.950;11.014;2023-08-20T08:39:43;3.90;;;1.70;;
62863;SDS011;48954;59.950;11.014;2023-08-20T08:42:25;4.70;;;2.50;;
62863;SDS011;48954;59.950;11.014;2023-08-20T08:45:06;5.60;;;3.40;;
62863;SDS011;48954;59.950;11.014;2023-08-20T08:47:49;7.70;;;3.10;;
62863;SDS011;48954;59.950;11.014;2023-08-20T08:50:54;9.20;;;3.30;;
62863;SDS011;48954;59.950;11.014;2023-08-20T08:53:25;6.20;;;3.70;;
62863;SDS011;48954;59.950;11.014;2023-08-20T08:56:06;10.00;;;4.30;;
62863;SDS011;48954;59.950;11.014;2023-08-20T08:58:33;9.80;;;4.40;;
62863;SDS011;48954;59.950;11.014;2023-08-20T09:01:02;7.10;;;4.30;;
62863;SDS011;48954;59.950;11.014;2023-08-20T09:03:35;9.10;;;4.20;;
62863;SDS011;48954;59.950;11.014;2023-08-20T09:06:19;9.00;;;4.30;;
62863;SDS011;48954;59.950;11.014;2023-08-20T09:09:03;9.00;;;4.60;;
62863;SDS011;48954;59.950;11.014;2023-08-20T09:11:34;9.60;;;4.50;;
62863;SDS011;48954;59.950;11.014;2023-08-20T09:14:37;7.40;;;4.80;;
62863;SDS011;48954;59.950;11.014;2023-08-20T09:17:15;8.60;;;5.00;;
62863;SDS011;48954;59.950;11.014;2023-08-20T09:20:00;11.40;;;5.70;;
62863;SDS011;48954;59.950;11.014;2023-08-20T09:22:46;10.10;;;4.70;;
62863;SDS011;48954;59.950;11.014;2023-08-20T09:25:29;8.50;;;4.70;;
62863;SDS011;48954;59.950;11.014;2023-08-20T09:28:41;9.50;;;4.90;;
62863;SDS011;48954;59.950;11.014;2023-08-20T09:31:37;10.00;;;5.70;;
62863;SDS011;48954;59.950;11.014;2023-08-20T09:34:42;9.20;;;5.00;;
62863;SDS011;48954;59.950;11.014;2023-08-20T09:40:28;10.30;;;5.20;;
62863;SDS011;48954;59.950;11.014;2023-08-20T09:57:21;10.10;;;5.10;;
62863;SDS011;48954;59.950;11.014;2023-08-20T09:59:46;12.40;;;5.30;;
62863;SDS011;48954;59.950;11.014;2023-08-20T10:02:48;11.00;;;5.60;;
62863;SDS011;48954;59.950;11.014;2023-08-20T10:05:29;9.80;;;5.20;;
62863;SDS011;48954;59.950;11.014;2023-08-20T10:08:11;9.60;;;5.20;;
62863;SDS011;48954;59.950;11.014;2023-08-20T10:11:14;12.70;;;5.40;;
62863;SDS011;48954;59.950;11.014;2023-08-20T10:16:43;8.50;;;4.40;;
62863;SDS011;48954;59.950;11.014;2023-08-20T10:31:06;8.60;;;4.60;;
62863;SDS011;48954;59.950;11.014;2023-08-20T10:33:50;10.00;;;4.70;;
62863;SDS011;48954;59.950;11.014;2023-08-20T10:36:23;8.30;;;4.90;;
62863;SDS011;48954;59.950;11.014;2023-08-20T10:39:43;12.00;;;5.00;;
62863;SDS011;48954;59.950;11.014;2023-08-20T10:42:26;9.60;;;4.90;;
62863;SDS011;48954;59.950;11.014;2023-08-20T10:45:16;8.80;;;4.90;;
62863;SDS011;48954;59.950;11.014;2023-08-20T10:48:04;11.00;;;5.60;;
62863;SDS011;48954;59.950;11.014;2023-08-20T10:50:31;10.90;;;4.90;;
62863;SDS011;48954;59.950;11.014;2023-08-20T10:53:05;10.40;;;4.80;;
62863;SDS011;48954;59.950;11.014;2023-08-20T10:55:51;9.20;;;5.00;;
62863;SDS011;48954;59.950;11.014;2023-08-20T10:58:47;9.20;;;4.50;;
62863;SDS011;48954;59.950;11.014;2023-08-20T11:01:27;9.30;;;4.80;;
62863;SDS011;48954;59.950;11.014;2023-08-20T11:04:03;7.00;;;4.70;;
62863;SDS011;48954;59.950;11.014;2023-08-20T12:13:34;8.10;;;5.00;;
62863;SDS011;48954;59.950;11.014;2023-08-20T12:16:16;9.20;;;5.40;;
62863;SDS011;48954;59.950;11.014;2023-08-20T12:19:23;8.50;;;5.60;;
62863;SDS011;48954;59.950;11.014;2023-08-20T12:22:00;8.60;;;5.70;;
62863;SDS011;48954;59.950;11.014;2023-08-20T12:24:41;7.70;;;4.80;;
62863;SDS011;48954;59.950;11.014;2023-08-20T12:27:46;8.40;;;5.00;;
62863;SDS011;48954;59.950;11.014;2023-08-20T12:31:07;8.10;;;5.60;;
62863;SDS011;48954;59.950;11.014;2023-08-20T12:34:07;8.00;;;5.10;;
62863;SDS011;48954;59.950;11.014;2023-08-20T12:37:10;9.60;;;5.30;;
62863;SDS011;48954;59.950;11.014;2023-08-20T12:39:52;7.50;;;5.30;;
62863;SDS011;48954;59.950;11.014;2023-08-20T12:42:37;7.90;;;5.40;;
62863;SDS011;48954;59.950;11.014;2023-08-20T12:45:24;6.90;;;4.80;;
62863;SDS011;48954;59.950;11.014;2023-08-20T13:02:11;7.30;;;4.30;;
62863;SDS011;48954;59.950;11.014;2023-08-20T13:04:53;7.10;;;4.50;;
62863;SDS011;48954;59.950;11.014;2023-08-20T13:07:55;7.00;;;4.50;;
62863;SDS011;48954;59.950;11.014;2023-08-20T13:10:27;7.80;;;5.00;;
62863;SDS011;48954;59.950;11.014;2023-08-20T13:13:12;8.80;;;5.00;;
62863;SDS011;48954;59.950;11.014;2023-08-20T13:15:42;6.10;;;4.50;;
62863;SDS011;48954;59.950;11.014;2023-08-20T13:18:25;6.80;;;4.60;;
62863;SDS011;48954;59.950;11.014;2023-08-20T13:24:10;7.40;;;5.40;;
62863;SDS011;48954;59.950;11.014;2023-08-20T14:56:39;7.50;;;4.40;;
62863;SDS011;48954;59.950;11.014;2023-08-20T15:21:46;6.50;;;4.60;;
62863;SDS011;48954;59.950;11.014;2023-08-20T15:25:06;6.00;;;4.40;;
62863;SDS011;48954;59.950;11.014;2023-08-20T15:30:38;6.80;;;4.50;;
62863;SDS011;48954;59.950;11.014;2023-08-20T16:40:05;9.00;;;4.80;;
62863;SDS011;48954;59.950;11.014;2023-08-20T16:43:06;6.50;;;4.20;;
62863;SDS011;48954;59.950;11.014;2023-08-20T16:52:01;9.00;;;5.90;;
62863;SDS011;48954;59.950;11.014;2023-08-20T16:58:15;7.50;;;4.60;;
62863;SDS011;48954;59.950;11.014;2023-08-20T17:06:47;8.90;;;5.40;;
62863;SDS011;48954;59.950;11.014;2023-08-20T17:09:50;10.10;;;5.70;;
62863;SDS011;48954;59.950;11.014;2023-08-20T17:12:55;11.70;;;6.00;;
62863;SDS011;48954;59.950;11.014;2023-08-20T17:16:00;9.30;;;5.60;;
62863;SDS011;48954;59.950;11.014;2023-08-20T17:18:43;10.10;;;4.90;;
62863;SDS011;48954;59.950;11.014;2023-08-20T17:29:49;11.90;;;5.60;;
62863;SDS011;48954;59.950;11.014;2023-08-20T17:32:30;7.00;;;5.00;;
62863;SDS011;48954;59.950;11.014;2023-08-20T17:35:22;8.10;;;4.90;;
62863;SDS011;48954;59.950;11.014;2023-08-20T17:38:36;6.60;;;4.50;;
62863;SDS011;48954;59.950;11.014;2023-08-20T17:47:11;6.70;;;4.80;;
62863;SDS011;48954;59.950;11.014;2023-08-20T17:53:02;8.60;;;5.10;;
62863;SDS011;48954;59.950;11.014;2023-08-20T17:55:44;7.40;;;5.20;;
62863;SDS011;48954;59.950;11.014;2023-08-20T17:58:26;7.50;;;5.10;;
62863;SDS011;48954;59.950;11.014;2023-08-20T18:12:41;8.40;;;5.90;;
62863;SDS011;48954;59.950;11.014;2023-08-20T18:18:16;10.70;;;6.90;;
62863;SDS011;48954;59.950;11.014;2023-08-20T18:29:26;15.50;;;7.00;;
62863;SDS011;48954;59.950;11.014;2023-08-20T18:40:52;12.30;;;7.80;;
62863;SDS011;48954;59.950;11.014;2023-08-20T18:44:15;12.30;;;7.70;;
62863;SDS011;48954;59.950;11.014;2023-08-20T18:55:22;17.50;;;8.50;;
62863;SDS011;48954;59.950;11.014;2023-08-20T18:58:12;16.90;;;9.20;;
62863;SDS011;48954;59.950;11.014;2023-08-20T19:01:46;18.90;;;9.40;;
62863;SDS011;48954;59.950;11.014;2023-08-20T19:12:57;18.40;;;9.70;;
62863;SDS011;48954;59.950;11.014;2023-08-20T19:18:52;20.30;;;9.40;;
62863;SDS011;48954;59.950;11.014;2023-08-20T19:21:54;20.20;;;10.90;;
62863;SDS011;48954;59.950;11.014;2023-08-20T19:24:47;18.90;;;9.50;;
62863;SDS011;48954;59.950;11.014;2023-08-20T19:27:42;15.60;;;9.00;;
62863;SDS011;48954;59.950;11.014;2023-08-20T19:30:25;21.00;;;9.60;;
62863;SDS011;48954;59.950;11.014;2023-08-20T19:33:06;15.90;;;9.30;;
62863;SDS011;48954;59.950;11.014;2023-08-20T19:36:07;19.30;;;8.90;;
62863;SDS011;48954;59.950;11.014;2023-08-20T19:38:49;15.10;;;8.40;;
62863;SDS011;48954;59.950;11.014;2023-08-20T19:41:38;19.30;;;9.90;;
62863;SDS011;48954;59.950;11.014;2023-08-20T19:45:07;14.20;;;9.00;;
62863;SDS011;48954;59.950;11.014;2023-08-20T20:08:09;18.50;;;10.30;;
62863;SDS011;48954;59.950;11.014;2023-08-20T20:10:57;22.00;;;10.50;;
62863;SDS011;48954;59.950;11.014;2023-08-20T20:14:05;24.60;;;10.60;;
62863;SDS011;48954;59.950;11.014;2023-08-20T20:17:07;21.60;;;10.40;;
62863;SDS011;48954;59.950;11.014;2023-08-20T20:20:14;19.30;;;10.30;;
62863;SDS011;48954;59.950;11.014;2023-08-20T20:23:20;19.70;;;9.80;;
62863;SDS011;48954;59.950;11.014;2023-08-20T20:35:07;26.10;;;10.70;;
62863;SDS011;48954;59.950;11.014;2023-08-20T20:38:18;24.00;;;10.70;;
62863;SDS011;48954;59.950;11.014;2023-08-20T20:40:58;23.30;;;9.70;;
62863;SDS011;48954;59.950;11.014;2023-08-20T20:46:29;24.70;;;9.60;;
62863;SDS011;48954;59.950;11.014;2023-08-20T20:49:33;26.60;;;10.20;;
62863;SDS011;48954;59.950;11.014;2023-08-20T21:00:39;25.60;;;9.30;;
62863;SDS011;48954;59.950;11.014;2023-08-20T21:06:12;29.10;;;9.50;;
62863;SDS011;48954;59.950;11.014;2023-08-20T21:09:12;20.60;;;9.30;;
62863;SDS011;48954;59.950;11.014;2023-08-20T21:11:57;23.00;;;9.60;;
62863;SDS011;48954;59.950;11.014;2023-08-20T21:14:37;23.10;;;9.10;;
62863;SDS011;48954;59.950;11.014;2023-08-20T21:17:18;26.70;;;9.30;;
62863;SDS011;48954;59.950;11.014;2023-08-20T21:20:00;27.60;;;9.90;;
62863;SDS011;48954;59.950;11.014;2023-08-20T21:22:45;31.60;;;9.30;;
62863;SDS011;48954;59.950;11.014;2023-08-20T21:25:21;25.10;;;8.00;;
62863;SDS011;48954;59.950;11.014;2023-08-20T21:28:01;30.70;;;9.40;;
62863;SDS011;48954;59.950;11.014;2023-08-20T21:30:43;26.50;;;9.10;;
62863;SDS011;48954;59.950;11.014;2023-08-20T21:33:35;22.60;;;8.30;;
62863;SDS011;48954;59.950;11.014;2023-08-20T21:36:17;21.10;;;7.40;;
62863;SDS011;48954;59.950;11.014;2023-08-20T21:38:45;25.60;;;7.70;;
62863;SDS011;48954;59.950;11.014;2023-08-20T21:41:25;21.90;;;7.90;;
62863;SDS011;48954;59.950;11.014;2023-08-20T21:44:07;22.60;;;7.90;;
62863;SDS011;48954;59.950;11.014;2023-08-20T21:46:39;23.20;;;7.40;;
62863;SDS011;48954;59.950;11.014;2023-08-20T21:49:20;25.80;;;8.40;;
62863;SDS011;48954;59.950;11.014;2023-08-20T21:51:54;20.00;;;7.80;;
62863;SDS011;48954;59.950;11.014;2023-08-20T21:54:33;29.00;;;9.30;;
62863;SDS011;48954;59.950;11.014;2023-08-20T21:57:09;19.40;;;7.30;;
62863;SDS011;48954;59.950;11.014;2023-08-20T21:59:58;19.30;;;7.80;;
62863;SDS011;48954;59.950;11.014;2023-08-20T22:02:38;18.00;;;6.40;;
